Terminal Aerodrome Forecast
Issued by NWS

Home | Current Version | Previous Version | Text Only | Print | Product List | Glossary On
Versions: 1 2 3 4 5 6 7 8 9 10 11 12 13 14
000
FTUS44 KLIX 301740
TAFMSY
TAF
KMSY 301740Z 3018/0118 23011KT P6SM SCT028 SCT180 BKN250
      TEMPO 3019/3023 VRB15G25KT 1SM TSRA BKN028CB
     FM010100 23012KT P6SM SCT060 SCT250
     FM010800 VRB03KT P6SM SCT005 BKN150=

USA.gov is the U.S. government's official web portal to all federal, state and local government web resources and services.